Time;durP1;ratioP1;P1;durP2;ratioP2;P2;SDS_P1;SDS_P2;PMS_P1;PMS_P2;Temp;Humidity;BMP_temperature;BMP_pressure;BME280_temperature;BME280_humidity;BME280_pressure;Samples;Min_cycle;Max_cycle;Signal;HPM_P1;HPM_P2
2022/12/17 13:08:28;;;;;;;19.30;13.20;;;;;;;;;;5110167;28;20024;-74
2022/12/17 13:11:27;;;;;;;18.55;13.00;;;;;;;;;;5110851;28;20031;-76
2022/12/17 13:14:39;;;;;;;19.95;13.85;;;;;;;;;;5111139;28;20080;-79
2022/12/17 13:17:30;;;;;;;20.05;14.10;;;;;;;;;;5112140;28;20034;-77
2022/12/17 13:20:21;;;;;;;17.70;12.45;;;;;;;;;;5112841;28;20013;-80
2022/12/17 13:23:10;;;;;;;18.60;13.00;;;;;;;;;;5109381;28;20082;-76
2022/12/17 13:26:22;;;;;;;18.30;12.43;;;;;;;;;;5110763;28;20338;-77
2022/12/17 13:29:27;;;;;;;18.77;12.35;;;;;;;;;;5076634;28;20032;-77
2022/12/17 13:32:13;;;;;;;16.58;11.07;;;;;;;;;;5109587;28;20024;-75
2022/12/17 13:34:59;;;;;;;16.63;11.60;;;;;;;;;;5092588;28;20024;-77
2022/12/17 13:37:44;;;;;;;15.27;10.90;;;;;;;;;;5109695;28;20028;-78
2022/12/17 13:40:38;;;;;;;16.80;11.40;;;;;;;;;;5107714;28;20016;-78
2022/12/17 13:43:26;;;;;;;15.07;10.73;;;;;;;;;;5080632;28;20441;-76
2022/12/17 13:46:18;;;;;;;15.90;10.00;;;;;;;;;;5081543;28;20020;-75
2022/12/17 13:49:18;;;;;;;13.77;9.10;;;;;;;;;;5095476;28;20039;-76
2022/12/17 13:52:16;;;;;;;11.60;8.02;;;;;;;;;;5095261;28;20116;-77
2022/12/17 13:55:05;;;;;;;10.77;8.27;;;;;;;;;;5095444;28;20027;-77
2022/12/17 13:57:52;;;;;;;14.32;9.02;;;;;;;;;;5080302;28;20341;-78
2022/12/17 14:00:37;;;;;;;12.27;8.88;;;;;;;;;;5094545;28;20103;-77
2022/12/17 14:03:23;;;;;;;15.77;9.52;;;;;;;;;;5095525;28;20023;-78
2022/12/17 14:06:10;;;;;;;14.80;8.93;;;;;;;;;;5094558;28;20088;-76
2022/12/17 14:08:56;;;;;;;16.88;8.77;;;;;;;;;;5094786;28;20031;-77
2022/12/17 14:14:47;;;;;;;12.52;8.27;;;;;;;;;;5095128;28;20027;-76
2022/12/17 14:17:41;;;;;;;13.60;8.57;;;;;;;;;;5080305;28;20031;-78
2022/12/17 14:20:31;;;;;;;14.02;9.40;;;;;;;;;;5096342;28;20028;-78
2022/12/17 14:23:17;;;;;;;17.08;9.48;;;;;;;;;;5095966;28;20028;-79
2022/12/17 14:26:10;;;;;;;13.50;8.65;;;;;;;;;;5095115;28;20023;-77
2022/12/17 14:28:56;;;;;;;13.93;9.07;;;;;;;;;;5094997;28;20024;-77
2022/12/17 14:31:50;;;;;;;13.02;9.50;;;;;;;;;;5095713;28;20020;-76
2022/12/17 14:34:41;;;;;;;13.77;8.82;;;;;;;;;;5098925;28;20020;-76
2022/12/17 14:37:27;;;;;;;11.73;8.88;;;;;;;;;;5099204;28;20024;-77
2022/12/17 14:40:14;;;;;;;14.70;9.43;;;;;;;;;;5103436;28;20028;-76
2022/12/17 14:43:00;;;;;;;15.13;8.98;;;;;;;;;;5095657;28;20020;-76
2022/12/17 14:49:03;;;;;;;15.80;10.32;;;;;;;;;;5097538;28;20017;-76
2022/12/17 14:51:49;;;;;;;16.77;9.35;;;;;;;;;;5099448;28;20023;-76
2022/12/17 14:54:34;;;;;;;15.68;9.40;;;;;;;;;;5103990;28;20039;-76
2022/12/17 14:57:21;;;;;;;18.25;10.07;;;;;;;;;;5102355;28;20020;-74
2022/12/17 15:00:07;;;;;;;14.85;10.00;;;;;;;;;;5099837;28;20083;-75
2022/12/17 15:02:53;;;;;;;14.40;10.32;;;;;;;;;;5098353;28;20127;-77
2022/12/17 15:05:39;;;;;;;15.98;10.15;;;;;;;;;;5097529;28;20434;-76
2022/12/17 15:08:24;;;;;;;14.00;9.65;;;;;;;;;;5096426;28;20032;-76
2022/12/17 15:11:14;;;;;;;14.93;10.05;;;;;;;;;;5082392;28;20413;-77
2022/12/17 15:14:00;;;;;;;15.57;10.55;;;;;;;;;;5096631;28;20371;-76
2022/12/17 15:16:46;;;;;;;15.48;10.48;;;;;;;;;;5097037;28;20024;-77
2022/12/17 15:19:31;;;;;;;17.60;11.90;;;;;;;;;;5097321;28;20024;-76
2022/12/17 15:22:17;;;;;;;20.60;12.57;;;;;;;;;;5096918;28;20024;-77
2022/12/17 15:25:03;;;;;;;19.88;13.00;;;;;;;;;;5096996;28;20024;-75
2022/12/17 15:27:48;;;;;;;22.88;13.35;;;;;;;;;;5097783;28;20082;-75
2022/12/17 15:30:37;;;;;;;20.60;12.82;;;;;;;;;;5080786;28;20082;-75
2022/12/17 15:33:22;;;;;;;19.88;12.90;;;;;;;;;;5096403;28;20074;-75
2022/12/17 15:36:09;;;;;;;20.73;13.50;;;;;;;;;;5096496;28;20116;-72
2022/12/17 15:38:54;;;;;;;21.70;14.88;;;;;;;;;;5095746;28;20028;-72
2022/12/17 15:44:44;;;;;;;24.35;15.82;;;;;;;;;;5095515;28;20020;-77
2022/12/17 15:47:30;;;;;;;24.55;15.73;;;;;;;;;;5077295;28;20457;-76
2022/12/17 15:50:16;;;;;;;24.02;15.93;;;;;;;;;;5096465;28;20109;-77
2022/12/17 15:53:01;;;;;;;29.77;16.58;;;;;;;;;;5095483;28;20042;-74
2022/12/17 15:55:47;;;;;;;29.38;16.80;;;;;;;;;;5075462;28;20080;-75
2022/12/17 15:58:33;;;;;;;25.10;16.40;;;;;;;;;;5083799;28;20020;-77
2022/12/17 16:01:22;;;;;;;25.42;16.92;;;;;;;;;;5082469;28;20040;-77
2022/12/17 16:04:07;;;;;;;27.00;16.23;;;;;;;;;;5081755;28;20025;-78
2022/12/17 16:06:53;;;;;;;25.27;15.88;;;;;;;;;;5082868;28;20107;-77
2022/12/17 16:09:39;;;;;;;24.67;16.08;;;;;;;;;;5083247;28;20503;-77
2022/12/17 16:12:25;;;;;;;25.42;16.25;;;;;;;;;;5097707;28;20028;-77
2022/12/17 16:15:11;;;;;;;28.05;17.38;;;;;;;;;;5082699;28;20016;-77
2022/12/17 16:17:58;;;;;;;25.60;15.48;;;;;;;;;;5097144;28;20027;-76
2022/12/17 16:20:44;;;;;;;27.65;17.02;;;;;;;;;;5097113;28;20468;-76
2022/12/17 16:23:30;;;;;;;25.65;16.23;;;;;;;;;;5068297;28;20031;-76
2022/12/17 16:26:19;;;;;;;28.92;18.38;;;;;;;;;;5097937;28;20434;-77
2022/12/17 16:29:05;;;;;;;29.75;18.63;;;;;;;;;;5082172;28;20032;-76
2022/12/17 16:31:50;;;;;;;29.42;17.88;;;;;;;;;;5081781;28;20093;-77
2022/12/17 16:34:36;;;;;;;30.40;18.70;;;;;;;;;;5080881;28;20028;-77
2022/12/17 16:37:22;;;;;;;34.30;20.80;;;;;;;;;;5080401;28;20031;-77
2022/12/17 16:40:08;;;;;;;33.13;20.65;;;;;;;;;;5094620;28;20024;-76
2022/12/17 16:42:54;;;;;;;36.67;20.85;;;;;;;;;;5096207;28;20107;-76
2022/12/17 16:45:45;;;;;;;40.38;23.42;;;;;;;;;;5082619;28;20334;-76
2022/12/17 16:48:35;;;;;;;41.83;23.13;;;;;;;;;;5081201;28;20024;-76
2022/12/17 16:51:22;;;;;;;46.88;25.15;;;;;;;;;;5079791;28;20016;-77
2022/12/17 16:54:10;;;;;;;47.05;25.63;;;;;;;;;;5081283;28;20036;-76
2022/12/17 16:56:55;;;;;;;45.50;24.98;;;;;;;;;;5094697;28;20362;-76
2022/12/17 16:59:41;;;;;;;44.42;25.08;;;;;;;;;;5094318;28;20019;-75
2022/12/17 17:02:26;;;;;;;44.03;25.45;;;;;;;;;;5079243;28;20113;-75
2022/12/17 17:05:12;;;;;;;43.35;24.02;;;;;;;;;;5079767;28;20417;-76
2022/12/17 17:07:58;;;;;;;37.60;23.08;;;;;;;;;;5093686;28;20020;-77
2022/12/17 17:10:43;;;;;;;45.20;24.30;;;;;;;;;;5094140;28;20016;-76
2022/12/17 17:13:29;;;;;;;42.88;23.70;;;;;;;;;;5094094;28;20012;-76
2022/12/17 17:16:15;;;;;;;43.22;23.75;;;;;;;;;;5093179;28;20327;-75
2022/12/17 17:19:01;;;;;;;49.97;25.90;;;;;;;;;;5094527;28;20020;-76
2022/12/17 17:21:51;;;;;;;43.15;25.33;;;;;;;;;;5080155;28;20108;-77
2022/12/17 17:24:37;;;;;;;43.42;25.58;;;;;;;;;;5094651;28;20334;-74
2022/12/17 17:27:22;;;;;;;40.75;23.00;;;;;;;;;;5092947;28;20438;-75
2022/12/17 17:30:08;;;;;;;42.78;24.25;;;;;;;;;;5079203;28;20028;-76
2022/12/17 17:32:54;;;;;;;39.35;23.30;;;;;;;;;;5079579;28;20084;-78
2022/12/17 17:35:39;;;;;;;43.05;26.02;;;;;;;;;;5094161;28;20044;-77
2022/12/17 17:38:25;;;;;;;40.90;23.17;;;;;;;;;;5080400;28;20028;-77
2022/12/17 17:41:12;;;;;;;43.75;24.17;;;;;;;;;;5079342;28;20035;-78
2022/12/17 17:44:02;;;;;;;50.25;27.52;;;;;;;;;;5093576;28;20026;-79
2022/12/17 17:46:47;;;;;;;41.47;24.73;;;;;;;;;;5079326;28;20032;-74
2022/12/17 17:49:33;;;;;;;41.28;24.75;;;;;;;;;;5092637;28;20020;-76
2022/12/17 17:52:18;;;;;;;42.15;23.00;;;;;;;;;;5079413;28;20409;-75
2022/12/17 17:55:04;;;;;;;44.75;23.52;;;;;;;;;;5093999;28;20111;-74
2022/12/17 17:57:51;;;;;;;39.15;22.95;;;;;;;;;;5093877;28;20106;-75
2022/12/17 18:00:37;;;;;;;39.42;22.80;;;;;;;;;;5078498;28;20012;-73
2022/12/17 18:03:23;;;;;;;40.40;23.73;;;;;;;;;;5079043;28;20023;-74
2022/12/17 18:06:10;;;;;;;41.40;24.27;;;;;;;;;;5094037;28;20089;-76
2022/12/17 18:08:56;;;;;;;39.00;23.73;;;;;;;;;;5093608;28;20094;-75
2022/12/17 18:11:42;;;;;;;38.03;22.02;;;;;;;;;;5079699;28;20039;-74
2022/12/17 18:14:28;;;;;;;35.17;22.20;;;;;;;;;;5093072;28;20164;-76
2022/12/17 18:17:13;;;;;;;38.67;23.40;;;;;;;;;;5079371;28;20105;-75
2022/12/17 18:19:59;;;;;;;33.60;22.13;;;;;;;;;;5093648;28;20114;-75
2022/12/17 18:22:45;;;;;;;34.53;21.33;;;;;;;;;;5093164;28;20023;-75
2022/12/17 18:25:30;;;;;;;37.42;22.40;;;;;;;;;;5078332;28;20016;-76
2022/12/17 18:28:16;;;;;;;42.30;25.35;;;;;;;;;;5094445;28;20308;-76
2022/12/17 18:31:21;;;;;;;37.70;22.60;;;;;;;;;;5097493;28;20120;-74
2022/12/17 18:34:07;;;;;;;42.15;23.98;;;;;;;;;;5097992;28;20020;-75
2022/12/17 18:36:53;;;;;;;42.90;24.27;;;;;;;;;;5097822;28;20052;-74
2022/12/17 18:39:38;;;;;;;39.10;23.58;;;;;;;;;;5097247;28;20063;-75
2022/12/17 18:45:28;;;;;;;34.38;21.35;;;;;;;;;;5097614;28;20089;-74
2022/12/17 18:48:14;;;;;;;32.33;20.42;;;;;;;;;;5111390;28;20024;-73
2022/12/17 18:51:04;;;;;;;32.85;20.30;;;;;;;;;;5116752;28;20008;-74
2022/12/17 18:53:50;;;;;;;31.98;20.15;;;;;;;;;;5086087;28;20085;-76
2022/12/17 18:56:36;;;;;;;31.70;19.45;;;;;;;;;;5103831;28;20024;-74
2022/12/17 18:59:22;;;;;;;27.88;18.70;;;;;;;;;;5100842;28;20101;-75
2022/12/17 19:02:12;;;;;;;31.50;17.25;;;;;;;;;;5083790;28;20066;-74
2022/12/17 19:04:57;;;;;;;25.38;17.02;;;;;;;;;;5095957;28;20020;-73
2022/12/17 19:07:43;;;;;;;27.77;16.80;;;;;;;;;;5095674;28;20602;-75
2022/12/17 19:10:28;;;;;;;25.58;15.50;;;;;;;;;;5096784;28;20024;-74
2022/12/17 19:13:14;;;;;;;26.63;16.90;;;;;;;;;;5082072;28;20114;-73
2022/12/17 19:16:06;;;;;;;23.27;15.38;;;;;;;;;;5096071;28;20024;-75
2022/12/17 19:18:53;;;;;;;23.95;15.63;;;;;;;;;;5093807;28;20016;-73
2022/12/17 19:21:39;;;;;;;31.30;16.63;;;;;;;;;;5113946;28;20073;-74
2022/12/17 19:24:25;;;;;;;22.63;14.40;;;;;;;;;;5103454;28;20080;-73
2022/12/17 19:27:11;;;;;;;22.48;15.18;;;;;;;;;;5099445;28;20023;-75
2022/12/17 19:29:56;;;;;;;22.05;14.60;;;;;;;;;;5084653;28;20469;-76
2022/12/17 19:32:42;;;;;;;22.75;14.77;;;;;;;;;;5095565;28;20031;-76
2022/12/17 19:35:27;;;;;;;24.58;14.70;;;;;;;;;;5094990;28;20125;-74
2022/12/17 19:38:13;;;;;;;20.50;13.93;;;;;;;;;;5096050;28;20028;-74
2022/12/17 19:41:07;;;;;;;25.33;14.98;;;;;;;;;;5094321;28;20019;-76
2022/12/17 19:43:55;;;;;;;21.08;13.65;;;;;;;;;;5095426;28;20023;-75
2022/12/17 19:46:42;;;;;;;22.30;13.95;;;;;;;;;;5080283;28;20031;-75
2022/12/17 19:49:27;;;;;;;22.05;14.05;;;;;;;;;;5083084;28;20016;-75
2022/12/17 19:52:13;;;;;;;22.88;14.77;;;;;;;;;;5095227;28;20034;-76
2022/12/17 19:54:58;;;;;;;21.73;14.52;;;;;;;;;;5082123;28;20020;-75
2022/12/17 19:57:44;;;;;;;23.27;14.23;;;;;;;;;;5095461;28;20133;-76
2022/12/17 20:00:29;;;;;;;23.35;14.95;;;;;;;;;;5081113;28;20023;-77
2022/12/17 20:03:15;;;;;;;21.30;14.00;;;;;;;;;;5081137;28;20016;-75
2022/12/17 20:06:01;;;;;;;20.73;13.80;;;;;;;;;;5096497;28;20408;-75
2022/12/17 20:08:46;;;;;;;22.60;14.10;;;;;;;;;;5096357;28;20024;-75
2022/12/17 20:11:32;;;;;;;20.52;13.63;;;;;;;;;;5080824;28;20031;-75
2022/12/17 20:14:19;;;;;;;20.80;13.55;;;;;;;;;;5082733;28;20181;-76
2022/12/17 20:17:05;;;;;;;19.52;12.02;;;;;;;;;;5096921;28;20397;-78
2022/12/17 20:19:52;;;;;;;20.65;12.23;;;;;;;;;;5083840;28;20051;-76
2022/12/17 20:22:37;;;;;;;19.30;12.25;;;;;;;;;;5081477;28;20030;-74
2022/12/17 20:25:23;;;;;;;19.25;12.52;;;;;;;;;;5081070;28;20063;-75
2022/12/17 20:28:08;;;;;;;18.90;12.35;;;;;;;;;;5095179;28;20031;-75
2022/12/17 20:30:54;;;;;;;20.42;12.20;;;;;;;;;;5080948;28;20366;-75
2022/12/17 20:33:40;;;;;;;18.42;12.05;;;;;;;;;;5096133;28;20031;-76
2022/12/17 20:36:25;;;;;;;19.17;12.02;;;;;;;;;;5095906;28;20162;-75
2022/12/17 20:39:11;;;;;;;17.90;12.38;;;;;;;;;;5083073;28;20374;-77
2022/12/17 20:41:57;;;;;;;15.52;11.35;;;;;;;;;;5081472;28;20038;-75
2022/12/17 20:44:43;;;;;;;16.95;11.18;;;;;;;;;;5094902;28;20055;-75
2022/12/17 20:47:28;;;;;;;16.30;10.70;;;;;;;;;;5094854;28;20020;-76
2022/12/17 20:50:14;;;;;;;16.65;10.88;;;;;;;;;;5094665;28;20027;-75
2022/12/17 20:53:00;;;;;;;13.93;10.38;;;;;;;;;;5096754;28;20404;-76
2022/12/17 20:55:45;;;;;;;16.10;11.30;;;;;;;;;;5096205;28;20035;-76
2022/12/17 20:58:31;;;;;;;17.05;10.40;;;;;;;;;;5098610;28;20111;-75
2022/12/17 21:01:18;;;;;;;15.25;10.80;;;;;;;;;;5083484;28;20071;-75
2022/12/17 21:04:06;;;;;;;14.45;10.48;;;;;;;;;;5081839;28;20024;-78
2022/12/17 21:06:51;;;;;;;16.40;10.23;;;;;;;;;;5093671;28;20020;-76
2022/12/17 21:09:37;;;;;;;14.45;9.65;;;;;;;;;;5093768;28;20353;-77
2022/12/17 21:13:27;;;;;;;14.50;9.65;;;;;;;;;;5079746;28;20357;-75
2022/12/17 21:15:28;;;;;;;14.90;9.88;;;;;;;;;;5094009;28;20020;-78
2022/12/17 21:18:14;;;;;;;15.25;9.77;;;;;;;;;;5094844;28;20118;-76
2022/12/17 21:21:05;;;;;;;13.98;9.68;;;;;;;;;;5079593;28;20115;-75
2022/12/17 21:23:51;;;;;;;14.07;9.73;;;;;;;;;;5080281;28;20288;-76
2022/12/17 21:26:38;;;;;;;13.90;9.55;;;;;;;;;;5093909;28;20069;-75
2022/12/17 21:29:23;;;;;;;13.32;9.20;;;;;;;;;;5094389;28;20408;-77
2022/12/17 21:32:09;;;;;;;14.90;10.45;;;;;;;;;;5094790;28;20038;-76
2022/12/17 21:34:55;;;;;;;14.32;9.65;;;;;;;;;;5094454;28;20175;-77
2022/12/17 21:37:40;;;;;;;15.05;9.77;;;;;;;;;;5079178;28;20438;-75
2022/12/17 21:40:26;;;;;;;14.50;9.90;;;;;;;;;;5079969;28;20034;-76
2022/12/17 21:43:11;;;;;;;12.73;9.02;;;;;;;;;;5079803;28;20016;-75
2022/12/17 21:45:57;;;;;;;14.48;9.98;;;;;;;;;;5079862;28;20024;-73
2022/12/17 21:48:43;;;;;;;12.95;9.15;;;;;;;;;;5094088;28;20055;-73
2022/12/17 21:51:29;;;;;;;13.68;9.18;;;;;;;;;;5093950;28;20027;-73
2022/12/17 21:54:14;;;;;;;16.02;9.68;;;;;;;;;;5079325;28;20024;-74
2022/12/17 21:57:00;;;;;;;14.68;9.75;;;;;;;;;;5093983;28;20023;-74
2022/12/17 21:59:45;;;;;;;12.27;8.65;;;;;;;;;;5093685;28;20471;-73
2022/12/17 22:02:31;;;;;;;13.77;9.20;;;;;;;;;;5093279;28;20059;-76
2022/12/17 22:05:17;;;;;;;13.90;9.60;;;;;;;;;;5094684;28;20103;-75
2022/12/17 22:08:03;;;;;;;17.75;10.70;;;;;;;;;;5093997;28;20066;-75
2022/12/17 22:10:48;;;;;;;15.10;10.27;;;;;;;;;;5094851;28;20020;-76
2022/12/17 22:16:45;;;;;;;15.27;10.10;;;;;;;;;;5094305;28;20016;-76
2022/12/17 22:19:32;;;;;;;14.55;9.68;;;;;;;;;;5093901;28;20438;-75
2022/12/17 22:22:17;;;;;;;15.30;10.40;;;;;;;;;;5093576;28;20067;-78
2022/12/17 22:25:03;;;;;;;14.80;9.45;;;;;;;;;;5078464;28;20493;-77
2022/12/17 22:27:49;;;;;;;16.23;10.35;;;;;;;;;;5079653;28;20417;-75
2022/12/17 22:33:38;;;;;;;16.10;10.68;;;;;;;;;;5094439;28;20035;-74
2022/12/17 22:36:26;;;;;;;18.05;10.98;;;;;;;;;;5078365;28;20352;-74
2022/12/17 22:39:13;;;;;;;16.05;10.38;;;;;;;;;;5093894;28;20101;-74
2022/12/17 22:45:04;;;;;;;17.38;11.35;;;;;;;;;;5093221;28;20016;-74
2022/12/17 22:47:50;;;;;;;19.70;12.07;;;;;;;;;;5093955;28;20016;-73
2022/12/17 22:50:35;;;;;;;17.60;10.85;;;;;;;;;;5070021;28;20027;-73
2022/12/17 22:53:22;;;;;;;18.48;11.93;;;;;;;;;;5093261;28;20028;-74
2022/12/17 22:56:07;;;;;;;19.75;12.02;;;;;;;;;;5092982;28;20028;-74
2022/12/17 22:58:53;;;;;;;20.10;12.52;;;;;;;;;;5077813;28;20377;-73
2022/12/17 23:01:39;;;;;;;18.70;11.20;;;;;;;;;;5078093;28;20054;-75
2022/12/17 23:04:24;;;;;;;19.73;12.32;;;;;;;;;;5092740;28;20430;-72
2022/12/17 23:07:10;;;;;;;19.05;11.98;;;;;;;;;;5078708;28;20024;-74
2022/12/17 23:09:55;;;;;;;21.10;12.93;;;;;;;;;;5092634;28;20495;-74
2022/12/17 23:12:50;;;;;;;28.85;16.65;;;;;;;;;;5092703;28;20023;-75
2022/12/17 23:15:36;;;;;;;22.90;13.63;;;;;;;;;;5096822;28;20093;-75
2022/12/17 23:18:22;;;;;;;33.33;18.67;;;;;;;;;;5096484;28;20028;-74
2022/12/17 23:21:08;;;;;;;25.42;15.13;;;;;;;;;;5095988;28;20469;-73
2022/12/17 23:23:54;;;;;;;25.95;15.65;;;;;;;;;;5096297;28;20062;-74
2022/12/17 23:26:40;;;;;;;28.58;16.40;;;;;;;;;;5095170;28;20038;-74
2022/12/17 23:29:26;;;;;;;30.63;17.55;;;;;;;;;;5081841;28;20039;-73
2022/12/17 23:32:11;;;;;;;28.73;16.55;;;;;;;;;;5095890;28;20089;-73
2022/12/17 23:34:57;;;;;;;30.75;16.77;;;;;;;;;;5097039;28;20020;-73
2022/12/17 23:37:42;;;;;;;26.33;15.40;;;;;;;;;;5096926;28;20621;-73
2022/12/17 23:40:28;;;;;;;28.20;15.43;;;;;;;;;;5096479;28;20509;-74
2022/12/17 23:43:13;;;;;;;26.67;15.68;;;;;;;;;;5115369;28;20039;-73
2022/12/17 23:45:59;;;;;;;27.27;14.70;;;;;;;;;;5099501;28;20391;-75
2022/12/17 23:48:46;;;;;;;25.88;15.25;;;;;;;;;;5093493;28;20050;-74
2022/12/17 23:51:31;;;;;;;30.23;15.55;;;;;;;;;;5081223;28;20024;-73
2022/12/17 23:54:17;;;;;;;29.20;15.40;;;;;;;;;;5094985;28;20020;-74
2022/12/17 23:57:03;;;;;;;26.73;15.55;;;;;;;;;;5098418;28;20135;-73
2022/12/17 23:59:48;;;;;;;26.48;15.88;;;;;;;;;;5097318;28;20383;-73
